Time;durP1;ratioP1;P1;durP2;ratioP2;P2;SDS_P1;SDS_P2;PMS_P1;PMS_P2;Temp;Humidity;BMP_temperature;BMP_pressure;BME280_temperature;BME280_humidity;BME280_pressure;Samples;Min_cycle;Max_cycle;Signal;HPM_P1;HPM_P2
2023/12/03 00:01:59;;;;;;;40.97;17.63;;;;;-7.00;94060.00;;;;7417293;19;20149;-82
2023/12/03 00:04:34;;;;;;;48.20;18.47;;;;;-7.00;94073.00;;;;7415017;19;20612;-81
2023/12/03 00:07:03;;;;;;;26.87;13.30;;;;;-7.00;94065.00;;;;7418607;19;20159;-81
2023/12/03 00:09:31;;;;;;;24.20;13.63;;;;;-7.00;94056.00;;;;7418231;19;20149;-82
2023/12/03 00:12:12;;;;;;;22.30;12.37;;;;;-7.00;94071.00;;;;7413813;19;20196;-81
2023/12/03 00:14:46;;;;;;;25.93;13.00;;;;;-7.00;94075.00;;;;7415841;19;20165;-82
2023/12/03 00:17:21;;;;;;;26.27;14.77;;;;;-7.00;94079.00;;;;7417495;19;20133;-81
2023/12/03 00:19:55;;;;;;;22.97;12.53;;;;;-6.90;94091.00;;;;7417103;19;20137;-81
2023/12/03 00:22:29;;;;;;;20.37;11.80;;;;;-6.90;94085.00;;;;7416044;19;20161;-83
2023/12/03 00:25:03;;;;;;;20.07;12.23;;;;;-6.90;94080.00;;;;7416217;19;20158;-81
2023/12/03 00:27:31;;;;;;;18.87;11.70;;;;;-6.90;94085.00;;;;7418971;19;20137;-82
2023/12/03 00:30:06;;;;;;;16.37;10.13;;;;;-6.80;94073.00;;;;7417488;19;20148;-81
2023/12/03 00:32:33;;;;;;;18.77;11.03;;;;;-6.90;94087.00;;;;7417990;19;20205;-82
2023/12/03 00:35:14;;;;;;;18.20;11.07;;;;;-7.00;94094.00;;;;7417306;19;20136;-81
2023/12/03 00:37:41;;;;;;;16.07;9.83;;;;;-7.00;94089.00;;;;7420462;19;20149;-82
2023/12/03 00:40:15;;;;;;;16.47;10.47;;;;;-7.00;94087.00;;;;7425403;19;20137;-82
2023/12/03 00:42:43;;;;;;;18.43;10.67;;;;;-7.00;94088.00;;;;7424167;19;20152;-82
2023/12/03 00:45:20;;;;;;;18.70;10.30;;;;;-7.00;94085.00;;;;7424060;19;20129;-82
2023/12/03 00:47:47;;;;;;;19.27;11.20;;;;;-7.00;94095.00;;;;7424852;19;20139;-84
2023/12/03 00:50:16;;;;;;;18.90;11.30;;;;;-7.00;94089.00;;;;7423467;19;20169;-84
2023/12/03 00:52:52;;;;;;;17.37;10.43;;;;;-7.00;94089.00;;;;7420230;19;20142;-82
2023/12/03 00:55:19;;;;;;;18.57;11.07;;;;;-7.00;94095.00;;;;7420656;19;20140;-83
2023/12/03 00:57:54;;;;;;;18.17;10.07;;;;;-7.10;94087.00;;;;7416671;19;20144;-76
2023/12/03 01:00:22;;;;;;;17.30;9.70;;;;;-7.00;94089.00;;;;7399822;19;20393;-75
2023/12/03 01:02:55;;;;;;;19.20;9.80;;;;;-7.20;94083.00;;;;7399187;19;20142;-76
2023/12/03 01:05:23;;;;;;;17.03;10.50;;;;;-7.20;94081.00;;;;7395105;19;20135;-76
2023/12/03 01:07:58;;;;;;;18.27;9.77;;;;;-7.20;94095.00;;;;7397094;19;20137;-76
2023/12/03 01:10:25;;;;;;;18.57;10.30;;;;;-7.20;94108.00;;;;7397045;19;20193;-76
2023/12/03 01:13:06;;;;;;;17.17;10.20;;;;;-7.30;94096.00;;;;7398489;19;20168;-77
2023/12/03 01:15:34;;;;;;;15.73;9.67;;;;;-7.30;94096.00;;;;7395733;19;20162;-76
2023/12/03 01:18:11;;;;;;;19.03;10.43;;;;;-7.30;94090.00;;;;7399262;19;20220;-76
2023/12/03 01:20:40;;;;;;;16.43;9.40;;;;;-7.40;94103.00;;;;7399404;19;20133;-76
2023/12/03 01:23:16;;;;;;;17.93;10.20;;;;;-7.30;94112.00;;;;7403867;19;20145;-76
2023/12/03 01:25:44;;;;;;;16.37;9.60;;;;;-7.30;94113.00;;;;7407340;19;20150;-75
2023/12/03 01:28:13;;;;;;;17.50;10.67;;;;;-7.30;94116.00;;;;7405460;19;20129;-76
2023/12/03 01:30:47;;;;;;;17.27;10.47;;;;;-7.30;94118.00;;;;7406656;19;20132;-78
2023/12/03 01:33:21;;;;;;;17.43;10.07;;;;;-7.30;94124.00;;;;7406608;19;20160;-76
2023/12/03 01:35:55;;;;;;;18.67;10.27;;;;;-7.30;94125.00;;;;7405314;19;20149;-77
2023/12/03 01:38:23;;;;;;;16.83;9.77;;;;;-7.30;94133.00;;;;7405182;19;20140;-77
2023/12/03 01:40:57;;;;;;;15.60;9.93;;;;;-7.30;94135.00;;;;7406901;19;20133;-76
2023/12/03 01:43:31;;;;;;;17.80;10.93;;;;;-7.30;94142.00;;;;7406435;19;20447;-76
2023/12/03 01:45:58;;;;;;;18.03;10.60;;;;;-7.30;94138.00;;;;7404681;19;20140;-76
2023/12/03 01:48:35;;;;;;;17.60;9.50;;;;;-7.30;94140.00;;;;7405357;19;20605;-77
2023/12/03 01:51:10;;;;;;;18.07;10.83;;;;;-7.30;94145.00;;;;7406609;19;20128;-76
2023/12/03 01:53:45;;;;;;;18.60;10.40;;;;;-7.30;94142.00;;;;7404782;19;20167;-76
2023/12/03 01:56:13;;;;;;;17.83;10.73;;;;;-7.30;94143.00;;;;7404626;19;20145;-76
2023/12/03 01:58:56;;;;;;;17.90;10.60;;;;;-7.40;94145.00;;;;7404517;19;20513;-78
2023/12/03 02:01:32;;;;;;;17.87;10.00;;;;;-7.40;94140.00;;;;7405667;19;20137;-76
2023/12/03 02:04:05;;;;;;;20.33;10.70;;;;;-7.40;94149.00;;;;7406283;19;20141;-78
2023/12/03 02:06:39;;;;;;;20.20;10.97;;;;;-7.40;94144.00;;;;7404798;19;20145;-77
2023/12/03 02:09:07;;;;;;;15.97;10.03;;;;;-7.40;94151.00;;;;7421826;19;20145;-78
2023/12/03 02:11:35;;;;;;;18.27;10.57;;;;;-7.40;94152.00;;;;7432320;19;20129;-83
2023/12/03 02:14:16;;;;;;;17.60;9.83;;;;;-7.40;94163.00;;;;7426282;19;20164;-82
2023/12/03 02:16:50;;;;;;;17.13;10.70;;;;;-7.40;94154.00;;;;7425267;19;20148;-83
2023/12/03 02:19:24;;;;;;;18.20;10.63;;;;;-7.40;94154.00;;;;7426655;19;20694;-81
2023/12/03 02:21:58;;;;;;;18.33;10.30;;;;;-7.40;94151.00;;;;7421046;19;20165;-82
2023/12/03 02:24:26;;;;;;;17.37;9.73;;;;;-7.40;94157.00;;;;7421909;19;20122;-81
2023/12/03 02:27:00;;;;;;;18.23;10.23;;;;;-7.30;94159.00;;;;7420515;19;20154;-82
2023/12/03 02:29:28;;;;;;;19.10;10.57;;;;;-7.30;94163.00;;;;7420424;19;20595;-83
2023/12/03 02:32:02;;;;;;;19.40;10.80;;;;;-7.40;94172.00;;;;7419419;19;20154;-81
2023/12/03 02:34:30;;;;;;;18.17;10.00;;;;;-7.40;94166.00;;;;7424238;19;20171;-82
2023/12/03 02:37:04;;;;;;;19.17;10.77;;;;;-7.40;94166.00;;;;7423741;19;20143;-83
2023/12/03 02:39:32;;;;;;;16.77;10.43;;;;;-7.50;94164.00;;;;7428831;19;20135;-81
2023/12/03 02:42:06;;;;;;;16.03;9.17;;;;;-7.50;94162.00;;;;7423155;19;20134;-82
2023/12/03 02:44:34;;;;;;;18.07;9.93;;;;;-7.50;94172.00;;;;7420599;19;20138;-82
2023/12/03 02:47:08;;;;;;;18.30;9.83;;;;;-7.50;94173.00;;;;7422696;19;20611;-83
2023/12/03 02:49:36;;;;;;;19.87;10.70;;;;;-7.50;94177.00;;;;7424112;19;20616;-83
2023/12/03 02:52:10;;;;;;;18.47;10.03;;;;;-7.50;94176.00;;;;7421090;19;20151;-82
2023/12/03 02:54:40;;;;;;;18.87;10.77;;;;;-7.50;94178.00;;;;7418095;19;20136;-81
2023/12/03 02:57:14;;;;;;;16.80;9.67;;;;;-7.60;94168.00;;;;7419127;19;20164;-81
2023/12/03 02:59:42;;;;;;;17.83;9.93;;;;;-7.70;94171.00;;;;7421392;19;20169;-81
2023/12/03 03:02:19;;;;;;;18.30;9.93;;;;;-7.80;94170.00;;;;7422806;19;20247;-80
2023/12/03 03:04:52;;;;;;;16.93;9.73;;;;;-7.90;94167.00;;;;7421005;19;20133;-82
2023/12/03 03:07:30;;;;;;;16.67;9.53;;;;;-8.10;94170.00;;;;7416967;19;20129;-81
2023/12/03 03:10:07;;;;;;;14.50;9.03;;;;;-8.20;94167.00;;;;7420111;19;20141;-82
2023/12/03 03:12:48;;;;;;;16.50;9.50;;;;;-8.30;94179.00;;;;7420939;19;20164;-81
2023/12/03 03:15:29;;;;;;;15.30;9.30;;;;;-8.40;94178.00;;;;7423983;19;20135;-82
2023/12/03 03:17:58;;;;;;;17.50;9.73;;;;;-8.40;94165.00;;;;7422296;19;20150;-82
2023/12/03 03:20:33;;;;;;;17.53;9.67;;;;;-8.50;94172.00;;;;7419879;19;20145;-81
2023/12/03 03:23:01;;;;;;;16.23;9.60;;;;;-8.50;94170.00;;;;7419997;19;20133;-82
2023/12/03 03:25:35;;;;;;;18.00;9.87;;;;;-8.70;94167.00;;;;7418702;19;20138;-82
2023/12/03 03:28:09;;;;;;;14.90;9.10;;;;;-8.90;94167.00;;;;7416731;19;20125;-84
2023/12/03 03:30:45;;;;;;;15.63;8.53;;;;;-9.00;94164.00;;;;7419603;19;20156;-83
2023/12/03 03:33:13;;;;;;;15.03;8.90;;;;;-9.00;94165.00;;;;7420551;19;20141;-84
2023/12/03 03:35:47;;;;;;;15.63;9.33;;;;;-9.10;94159.00;;;;7419672;19;20129;-83
2023/12/03 03:38:17;;;;;;;16.43;9.13;;;;;-9.30;94165.00;;;;7417563;19;20175;-83
2023/12/03 03:40:51;;;;;;;16.07;9.60;;;;;-9.40;94169.00;;;;7420930;19;20132;-84
2023/12/03 03:43:22;;;;;;;14.57;8.57;;;;;-9.40;94165.00;;;;7418420;19;20137;-81
2023/12/03 03:45:57;;;;;;;15.20;8.47;;;;;-9.40;94167.00;;;;7419525;19;20525;-81
2023/12/03 03:48:31;;;;;;;14.63;8.80;;;;;-9.60;94168.00;;;;7418177;19;20607;-82
2023/12/03 03:51:07;;;;;;;17.10;9.37;;;;;-9.60;94173.00;;;;7417660;19;20149;-82
2023/12/03 03:53:43;;;;;;;14.33;8.30;;;;;-9.60;94171.00;;;;7418744;19;20135;-81
2023/12/03 03:56:12;;;;;;;17.93;9.70;;;;;-9.60;94170.00;;;;7418223;19;20129;-82
2023/12/03 03:58:51;;;;;;;14.50;9.07;;;;;-9.60;94180.00;;;;7418544;19;20619;-84
2023/12/03 04:01:18;;;;;;;18.10;10.00;;;;;-9.60;94173.00;;;;7418796;19;20146;-83
2023/12/03 04:03:53;;;;;;;16.90;9.97;;;;;-9.50;94181.00;;;;7418213;19;20128;-83
2023/12/03 04:06:36;;;;;;;17.80;9.73;;;;;-9.50;94178.00;;;;7415676;19;20130;-80
2023/12/03 04:09:10;;;;;;;16.70;9.00;;;;;-9.70;94173.00;;;;7417566;19;20588;-82
2023/12/03 04:11:43;;;;;;;15.33;8.73;;;;;-9.80;94189.00;;;;7417552;19;20143;-82
2023/12/03 04:14:25;;;;;;;15.90;9.07;;;;;-9.80;94183.00;;;;7415217;19;20180;-81
2023/12/03 04:17:00;;;;;;;15.77;8.70;;;;;-9.80;94184.00;;;;7418467;19;20231;-83
2023/12/03 04:19:35;;;;;;;17.00;9.80;;;;;-9.70;94196.00;;;;7421708;19;20156;-83
2023/12/03 04:22:03;;;;;;;17.53;9.13;;;;;-9.80;94194.00;;;;7422308;19;20194;-82
2023/12/03 04:24:38;;;;;;;17.60;9.00;;;;;-9.90;94205.00;;;;7414576;19;20147;-82
2023/12/03 04:27:17;;;;;;;17.07;9.27;;;;;-10.00;94198.00;;;;7417780;19;20138;-82
2023/12/03 04:29:51;;;;;;;18.03;9.53;;;;;-10.00;94203.00;;;;7399116;19;20129;-77
2023/12/03 04:32:30;;;;;;;16.77;9.63;;;;;-9.90;94199.00;;;;7399485;19;20188;-76
2023/12/03 04:35:04;;;;;;;18.73;10.00;;;;;-9.90;94204.00;;;;7397318;19;20148;-77
2023/12/03 04:37:39;;;;;;;16.00;9.57;;;;;-9.90;94198.00;;;;7397508;19;20642;-76
2023/12/03 04:40:09;;;;;;;16.97;9.43;;;;;-9.90;94203.00;;;;7398620;19;20615;-77
2023/12/03 04:42:43;;;;;;;19.10;10.43;;;;;-10.10;94194.00;;;;7397001;19;20517;-76
2023/12/03 04:45:16;;;;;;;18.50;9.13;;;;;-10.10;94204.00;;;;7397977;19;20590;-75
2023/12/03 04:47:50;;;;;;;17.37;10.03;;;;;-10.00;94208.00;;;;7398916;19;20154;-76
2023/12/03 04:50:18;;;;;;;16.70;9.70;;;;;-9.90;94200.00;;;;7398227;19;20138;-75
2023/12/03 04:52:46;;;;;;;16.80;9.80;;;;;-10.00;94203.00;;;;7398922;19;20161;-75
2023/12/03 04:55:19;;;;;;;17.63;9.73;;;;;-10.00;94196.00;;;;7396592;19;20148;-76
2023/12/03 04:57:53;;;;;;;17.23;10.03;;;;;-10.00;94200.00;;;;7400899;19;20157;-76
2023/12/03 05:00:21;;;;;;;18.53;10.20;;;;;-10.00;94197.00;;;;7404046;19;20145;-76
2023/12/03 05:03:01;;;;;;;19.93;9.50;;;;;-10.10;94194.00;;;;7406294;19;20143;-76
2023/12/03 05:05:29;;;;;;;15.03;8.97;;;;;-10.20;94191.00;;;;7406298;19;20139;-75
2023/12/03 05:08:08;;;;;;;15.93;9.00;;;;;-10.30;94197.00;;;;7403671;19;20161;-79
2023/12/03 05:10:38;;;;;;;17.40;9.07;;;;;-10.20;94207.00;;;;7405914;19;20136;-74
2023/12/03 05:13:24;;;;;;;18.07;9.23;;;;;-10.00;94209.00;;;;7404094;19;20178;-75
2023/12/03 05:15:51;;;;;;;17.37;9.57;;;;;-9.90;94214.00;;;;7404240;19;20688;-75
2023/12/03 05:18:26;;;;;;;18.47;10.47;;;;;-10.00;94200.00;;;;7405920;19;20138;-76
2023/12/03 05:20:54;;;;;;;16.77;9.07;;;;;-10.10;94205.00;;;;7394222;19;20153;-76
2023/12/03 05:23:28;;;;;;;14.97;8.73;;;;;-10.30;94201.00;;;;7385696;19;20202;-75
2023/12/03 05:25:58;;;;;;;15.63;9.57;;;;;-10.40;94212.00;;;;7395345;19;20605;-76
2023/12/03 05:28:34;;;;;;;16.00;8.80;;;;;-10.50;94210.00;;;;7396019;19;20135;-76
2023/12/03 05:31:09;;;;;;;17.23;8.70;;;;;-10.50;94215.00;;;;7395220;19;20135;-76
2023/12/03 05:33:44;;;;;;;19.43;9.63;;;;;-10.30;94207.00;;;;7395405;19;20134;-76
2023/12/03 05:36:26;;;;;;;18.40;9.27;;;;;-10.20;94212.00;;;;7395629;19;20137;-77
2023/12/03 05:39:00;;;;;;;16.30;9.37;;;;;-10.00;94213.00;;;;7394875;19;20137;-76
2023/12/03 05:41:28;;;;;;;19.50;9.70;;;;;-10.10;94213.00;;;;7395262;19;20156;-75
2023/12/03 05:44:08;;;;;;;15.00;8.87;;;;;-10.20;94226.00;;;;7392268;19;20515;-75
2023/12/03 05:46:43;;;;;;;24.33;12.73;;;;;-10.20;94216.00;;;;7395204;19;20587;-75
2023/12/03 05:49:20;;;;;;;21.43;10.03;;;;;-10.10;94216.00;;;;7394750;19;20191;-76
2023/12/03 05:51:55;;;;;;;17.50;9.70;;;;;-10.00;94224.00;;;;7393459;19;20131;-77
2023/12/03 05:54:29;;;;;;;17.90;9.33;;;;;-10.10;94220.00;;;;7393646;19;20174;-74
2023/12/03 05:56:59;;;;;;;17.60;9.60;;;;;-10.10;94221.00;;;;7390992;19;20152;-75
2023/12/03 05:59:37;;;;;;;15.03;8.57;;;;;-10.00;94222.00;;;;7391731;19;20465;-76
2023/12/03 06:02:05;;;;;;;15.53;8.67;;;;;-10.10;94226.00;;;;7392963;19;20202;-75
2023/12/03 06:04:47;;;;;;;16.70;8.90;;;;;-10.20;94213.00;;;;7392285;19;20158;-75
2023/12/03 06:07:16;;;;;;;16.13;8.97;;;;;-10.20;94225.00;;;;7394027;19;20471;-76
2023/12/03 06:09:50;;;;;;;16.80;9.03;;;;;-10.30;94226.00;;;;7390774;19;20143;-75
2023/12/03 06:12:24;;;;;;;14.97;8.60;;;;;-10.30;94223.00;;;;7393354;19;20159;-76
2023/12/03 06:15:05;;;;;;;17.93;9.20;;;;;-10.20;94232.00;;;;7391967;19;20632;-75
2023/12/03 06:17:36;;;;;;;18.17;9.40;;;;;-10.30;94237.00;;;;7392847;19;20197;-75
2023/12/03 06:20:12;;;;;;;14.97;8.27;;;;;-10.30;94238.00;;;;7393472;19;20136;-74
2023/12/03 06:22:51;;;;;;;14.87;8.27;;;;;-10.20;94239.00;;;;7392397;19;20637;-76
2023/12/03 06:25:32;;;;;;;15.33;9.13;;;;;-10.20;94238.00;;;;7395047;19;20138;-75
2023/12/03 06:28:00;;;;;;;17.53;8.83;;;;;-10.30;94240.00;;;;7391881;19;20142;-75
2023/12/03 06:30:35;;;;;;;13.77;7.93;;;;;-10.30;94242.00;;;;7393322;19;20131;-74
2023/12/03 06:33:08;;;;;;;15.33;8.17;;;;;-10.40;94242.00;;;;7396103;19;20149;-75
2023/12/03 06:35:48;;;;;;;12.33;7.77;;;;;-10.10;94244.00;;;;7394318;19;20156;-76
2023/12/03 06:38:16;;;;;;;13.50;7.97;;;;;-10.00;94248.00;;;;7395025;19;20143;-77
2023/12/03 06:40:50;;;;;;;12.13;7.70;;;;;-9.90;94242.00;;;;7393451;19;20158;-76
2023/12/03 06:43:18;;;;;;;16.10;8.83;;;;;-9.80;94237.00;;;;7392125;19;20630;-74
2023/12/03 06:45:52;;;;;;;17.13;8.43;;;;;-9.60;94242.00;;;;7392758;19;20130;-76
2023/12/03 06:48:32;;;;;;;14.30;8.37;;;;;-9.50;94241.00;;;;7399807;19;20146;-80
2023/12/03 06:51:11;;;;;;;15.97;8.83;;;;;-9.40;94240.00;;;;7408822;19;20148;-80
2023/12/03 06:53:46;;;;;;;17.70;8.67;;;;;-9.20;94236.00;;;;7411456;19;20177;-80
2023/12/03 06:56:16;;;;;;;17.63;9.47;;;;;-9.20;94237.00;;;;7410409;19;20152;-79
2023/12/03 06:58:52;;;;;;;19.87;9.83;;;;;-9.10;94254.00;;;;7410360;19;20610;-80
2023/12/03 07:01:20;;;;;;;15.33;8.33;;;;;-9.00;94241.00;;;;7409207;19;20165;-82
2023/12/03 07:03:49;;;;;;;15.33;8.30;;;;;-9.00;94243.00;;;;7409152;19;20194;-79
2023/12/03 07:06:28;;;;;;;18.27;9.63;;;;;-9.00;94233.00;;;;7408035;19;20169;-79
2023/12/03 07:08:57;;;;;;;18.77;9.87;;;;;-8.90;94239.00;;;;7409334;19;20181;-80
2023/12/03 07:11:45;;;;;;;18.87;9.07;;;;;-9.00;94233.00;;;;7408832;19;20154;-80
2023/12/03 07:14:25;;;;;;;17.80;9.17;;;;;-8.90;94236.00;;;;7407475;19;20187;-81
2023/12/03 07:17:01;;;;;;;17.97;8.87;;;;;-8.90;94243.00;;;;7409561;19;20138;-79
2023/12/03 07:19:42;;;;;;;18.47;9.50;;;;;-8.70;94248.00;;;;7407477;19;20192;-79
2023/12/03 07:22:10;;;;;;;14.60;8.80;;;;;-8.50;94258.00;;;;7406377;19;20154;-81
2023/12/03 07:24:39;;;;;;;18.07;9.60;;;;;-8.50;94252.00;;;;7408281;19;20168;-79
2023/12/03 07:27:16;;;;;;;16.43;9.87;;;;;-8.30;94252.00;;;;7405637;19;20150;-78
2023/12/03 07:29:51;;;;;;;15.43;8.60;;;;;-8.30;94261.00;;;;7408218;19;20144;-80
2023/12/03 07:32:25;;;;;;;18.47;9.37;;;;;-8.30;94258.00;;;;7408916;19;20156;-80
2023/12/03 07:34:54;;;;;;;16.10;9.53;;;;;-8.20;94258.00;;;;7410210;19;20144;-79
2023/12/03 07:37:29;;;;;;;16.80;9.63;;;;;-8.10;94255.00;;;;7408437;19;20171;-78
2023/12/03 07:39:57;;;;;;;17.83;9.20;;;;;-8.00;94272.00;;;;7407614;19;20193;-82
2023/12/03 07:42:28;;;;;;;19.03;9.93;;;;;-8.10;94279.00;;;;7410390;19;20202;-79
2023/12/03 07:45:02;;;;;;;16.00;8.57;;;;;-8.00;94280.00;;;;7408476;19;20132;-80
2023/12/03 07:47:30;;;;;;;16.67;8.90;;;;;-8.10;94278.00;;;;7405607;19;20144;-80
2023/12/03 07:50:00;;;;;;;15.40;8.40;;;;;-8.00;94276.00;;;;7409153;19;20151;-80
2023/12/03 07:52:35;;;;;;;16.43;9.40;;;;;-7.80;94272.00;;;;7409791;19;20148;-81
2023/12/03 07:55:03;;;;;;;14.47;8.33;;;;;-7.70;94285.00;;;;7412201;19;20134;-80
2023/12/03 07:57:31;;;;;;;14.83;8.90;;;;;-7.60;94283.00;;;;7403833;19;20129;-75
2023/12/03 08:00:22;;;;;;;16.07;8.93;;;;;-7.40;94283.00;;;;7390351;19;20675;-77
2023/12/03 08:02:56;;;;;;;13.50;8.23;;;;;-7.30;94276.00;;;;7391839;19;20138;-77
2023/12/03 08:05:31;;;;;;;16.70;9.17;;;;;-7.00;94279.00;;;;7393421;19;20133;-77
2023/12/03 08:08:08;;;;;;;17.37;8.53;;;;;-7.00;94274.00;;;;7386282;19;20148;-77
2023/12/03 08:10:46;;;;;;;13.37;8.20;;;;;-7.00;94284.00;;;;7390975;19;20526;-77
2023/12/03 08:13:20;;;;;;;12.50;7.30;;;;;-7.10;94285.00;;;;7388809;19;20249;-77
2023/12/03 08:16:02;;;;;;;14.87;8.57;;;;;-7.00;94282.00;;;;7389490;19;20147;-77
2023/12/03 08:18:37;;;;;;;14.23;8.20;;;;;-6.70;94282.00;;;;7387873;19;20133;-77
2023/12/03 08:21:06;;;;;;;15.40;8.77;;;;;-6.60;94276.00;;;;7389564;19;20627;-77
2023/12/03 08:23:44;;;;;;;12.97;8.03;;;;;-6.40;94282.00;;;;7390726;19;20551;-77
2023/12/03 08:26:12;;;;;;;13.37;8.03;;;;;-6.20;94280.00;;;;7391085;19;20143;-77
2023/12/03 08:28:47;;;;;;;14.40;8.33;;;;;-6.00;94287.00;;;;7388673;19;20138;-77
2023/12/03 08:31:15;;;;;;;13.20;7.40;;;;;-5.70;94284.00;;;;7388763;19;20486;-79
2023/12/03 08:33:50;;;;;;;12.87;7.47;;;;;-5.40;94286.00;;;;7389038;19;20132;-78
2023/12/03 08:36:30;;;;;;;12.87;7.67;;;;;-5.40;94288.00;;;;7388661;19;20138;-79
2023/12/03 08:39:02;;;;;;;13.23;7.30;;;;;-5.30;94288.00;;;;7389530;19;20156;-79
2023/12/03 08:41:36;;;;;;;13.83;7.93;;;;;-5.30;94303.00;;;;7390607;19;20149;-79
2023/12/03 08:44:05;;;;;;;13.13;7.70;;;;;-5.20;94301.00;;;;7389343;19;20140;-79
2023/12/03 08:46:39;;;;;;;13.10;7.63;;;;;-5.10;94287.00;;;;7389530;19;20151;-79
2023/12/03 08:49:07;;;;;;;15.67;9.47;;;;;-5.00;94289.00;;;;7393331;19;20144;-79
2023/12/03 08:51:44;;;;;;;15.23;9.37;;;;;-4.90;94289.00;;;;7387822;19;20175;-78
2023/12/03 08:54:24;;;;;;;14.57;8.10;;;;;-5.10;94286.00;;;;7387263;19;20144;-78
2023/12/03 08:56:59;;;;;;;11.53;7.30;;;;;-4.90;94288.00;;;;7385572;19;20177;-77
2023/12/03 08:59:27;;;;;;;11.73;7.27;;;;;-4.90;94291.00;;;;7388645;19;20153;-78
2023/12/03 09:02:01;;;;;;;11.13;6.93;;;;;-4.70;94275.00;;;;7387597;19;20514;-78
2023/12/03 09:04:38;;;;;;;11.50;7.23;;;;;-4.50;94276.00;;;;7388981;19;20522;-78
2023/12/03 09:07:13;;;;;;;11.73;7.00;;;;;-4.30;94273.00;;;;7386421;19;20538;-79
2023/12/03 09:09:48;;;;;;;11.20;6.93;;;;;-3.60;94272.00;;;;7391417;19;20128;-78
2023/12/03 09:12:25;;;;;;;9.47;6.87;;;;;-3.40;94267.00;;;;7394721;19;20656;-78
2023/12/03 09:15:11;;;;;;;10.53;7.00;;;;;-3.40;94274.00;;;;7393454;19;20239;-78
2023/12/03 09:17:46;;;;;;;11.67;8.07;;;;;-3.30;94272.00;;;;7392956;19;20576;-79
2023/12/03 09:20:14;;;;;;;9.40;6.47;;;;;-3.00;94275.00;;;;7392418;19;20164;-79
2023/12/03 09:22:49;;;;;;;9.77;6.70;;;;;-2.70;94282.00;;;;7389280;19;20152;-77
2023/12/03 09:25:24;;;;;;;11.70;7.47;;;;;-2.40;94279.00;;;;7388002;19;20144;-77
2023/12/03 09:27:54;;;;;;;9.17;6.73;;;;;-2.40;94279.00;;;;7390894;19;20146;-78
2023/12/03 09:30:29;;;;;;;10.17;6.70;;;;;-2.40;94279.00;;;;7392950;19;20486;-79
2023/12/03 09:33:00;;;;;;;9.90;7.00;;;;;-1.60;94277.00;;;;7399891;19;20141;-79
2023/12/03 09:35:35;;;;;;;10.60;6.97;;;;;-1.60;94282.00;;;;7400867;19;20165;-80
2023/12/03 09:38:10;;;;;;;12.90;7.77;;;;;-1.20;94281.00;;;;7412883;19;20137;-79
2023/12/03 09:40:52;;;;;;;10.83;7.37;;;;;-1.70;94291.00;;;;7394005;19;20148;-78
2023/12/03 09:43:30;;;;;;;10.57;7.17;;;;;-2.30;94297.00;;;;7390305;19;20137;-77
2023/12/03 09:46:12;;;;;;;11.57;7.03;;;;;-1.40;94295.00;;;;7392710;19;20155;-78
2023/12/03 09:48:47;;;;;;;12.47;9.23;;;;;-0.70;94291.00;;;;7394974;19;20128;-75
2023/12/03 09:51:27;;;;;;;11.43;7.73;;;;;-0.70;94292.00;;;;7393410;19;20200;-77
2023/12/03 09:54:02;;;;;;;12.37;8.57;;;;;-0.50;94291.00;;;;7393462;19;20203;-78
2023/12/03 09:56:42;;;;;;;10.47;7.37;;;;;-0.20;94303.00;;;;7391717;19;20143;-77
2023/12/03 09:59:19;;;;;;;13.73;8.40;;;;;-0.10;94297.00;;;;7391091;19;20917;-78
2023/12/03 10:01:57;;;;;;;14.47;9.63;;;;;0.20;94299.00;;;;7392416;19;20132;-77
2023/12/03 10:04:33;;;;;;;12.17;8.27;;;;;-0.10;94291.00;;;;7391813;19;20500;-77
2023/12/03 10:07:09;;;;;;;12.13;8.67;;;;;0.00;94289.00;;;;7390957;19;20149;-76
2023/12/03 10:09:44;;;;;;;12.03;8.43;;;;;0.10;94294.00;;;;7390545;19;20169;-74
2023/12/03 10:12:16;;;;;;;11.50;8.37;;;;;0.00;94301.00;;;;7390236;19;21114;-77
2023/12/03 10:14:58;;;;;;;12.37;8.43;;;;;0.10;94295.00;;;;7392126;19;20192;-76
2023/12/03 10:17:29;;;;;;;11.73;8.20;;;;;0.00;94290.00;;;;7391100;19;20129;-72
2023/12/03 10:20:24;;;;;;;12.07;8.47;;;;;0.10;94292.00;;;;7390621;19;20132;-74
2023/12/03 10:22:55;;;;;;;12.97;9.17;;;;;-0.20;94286.00;;;;7392232;19;20174;-75
2023/12/03 10:25:35;;;;;;;11.83;8.53;;;;;0.10;94292.00;;;;7389864;19;20144;-74
2023/12/03 10:28:14;;;;;;;14.33;9.13;;;;;0.30;94290.00;;;;7390649;19;20155;-74
2023/12/03 10:30:45;;;;;;;11.53;7.80;;;;;0.20;94292.00;;;;7391801;19;20208;-74
2023/12/03 10:33:21;;;;;;;11.03;8.00;;;;;0.10;94293.00;;;;7390944;19;20148;-73
2023/12/03 10:35:49;;;;;;;11.30;7.60;;;;;0.00;94285.00;;;;7391585;19;20145;-74
2023/12/03 10:38:24;;;;;;;13.97;8.93;;;;;0.50;94278.00;;;;7391194;19;20207;-74
2023/12/03 10:40:59;;;;;;;13.70;9.30;;;;;0.00;94294.00;;;;7391398;19;20141;-73
2023/12/03 10:43:35;;;;;;;13.07;8.37;;;;;-0.20;94290.00;;;;7391246;19;20151;-73
2023/12/03 10:46:12;;;;;;;11.57;8.37;;;;;-0.20;94283.00;;;;7391034;19;20125;-73
2023/12/03 10:48:48;;;;;;;13.23;8.83;;;;;0.00;94275.00;;;;7391596;19;20247;-73
2023/12/03 10:51:25;;;;;;;12.70;9.50;;;;;0.50;94290.00;;;;7389058;19;20268;-73
2023/12/03 10:53:59;;;;;;;11.70;8.97;;;;;0.30;94274.00;;;;7391963;19;20141;-73
2023/12/03 10:56:28;;;;;;;12.77;8.33;;;;;1.00;94279.00;;;;7388808;19;20161;-76
2023/12/03 10:59:02;;;;;;;16.10;9.47;;;;;1.10;94277.00;;;;7388325;19;20214;-72
2023/12/03 11:01:40;;;;;;;13.43;9.60;;;;;1.20;94263.00;;;;7390432;19;20601;-73
2023/12/03 11:04:19;;;;;;;12.43;9.07;;;;;0.80;94269.00;;;;7388572;19;20137;-73
2023/12/03 11:06:55;;;;;;;12.20;9.13;;;;;1.20;94264.00;;;;7390436;19;20131;-73
2023/12/03 11:09:24;;;;;;;15.50;9.90;;;;;1.50;94266.00;;;;7388782;19;20149;-73
2023/12/03 11:12:04;;;;;;;13.63;9.67;;;;;1.40;94263.00;;;;7388896;19;20143;-73
2023/12/03 11:14:40;;;;;;;15.43;9.77;;;;;1.30;94265.00;;;;7389797;19;20160;-72
2023/12/03 11:17:47;;;;;;;13.83;10.03;;;;;1.40;94271.00;;;;7388335;19;20597;-73
2023/12/03 11:20:29;;;;;;;12.57;9.40;;;;;1.20;94257.00;;;;7390006;19;20128;-73
2023/12/03 11:23:23;;;;;;;13.97;9.60;;;;;1.10;94264.00;;;;7388900;19;20177;-73
2023/12/03 11:26:07;;;;;;;13.00;9.13;;;;;1.50;94262.00;;;;7388865;19;20462;-73
2023/12/03 11:29:00;;;;;;;10.93;8.13;;;;;1.70;94264.00;;;;7389953;19;20230;-71
2023/12/03 11:31:27;;;;;;;21.13;11.77;;;;;2.10;94269.00;;;;7389921;19;20133;-71
2023/12/03 11:34:05;;;;;;;13.43;9.50;;;;;2.10;94260.00;;;;7386886;19;20163;-72
2023/12/03 11:36:45;;;;;;;10.83;7.83;;;;;2.30;94274.00;;;;7386714;19;20596;-71
2023/12/03 11:39:24;;;;;;;14.10;10.20;;;;;2.80;94253.00;;;;7385026;19;20161;-72
2023/12/03 11:42:01;;;;;;;12.70;9.83;;;;;2.80;94255.00;;;;7388878;19;20133;-72
2023/12/03 11:44:35;;;;;;;12.50;9.90;;;;;3.40;94247.00;;;;7389183;19;20158;-75
2023/12/03 11:47:10;;;;;;;14.93;8.70;;;;;3.30;94250.00;;;;7389721;19;20144;-74
2023/12/03 11:49:44;;;;;;;11.87;8.87;;;;;3.40;94250.00;;;;7386362;19;20144;-75
2023/12/03 11:52:19;;;;;;;13.23;9.57;;;;;3.30;94249.00;;;;7388521;19;20514;-71
2023/12/03 11:55:04;;;;;;;11.20;8.67;;;;;2.80;94247.00;;;;7389015;19;20204;-72
2023/12/03 11:57:40;;;;;;;13.13;9.67;;;;;3.20;94244.00;;;;7387255;19;20147;-72
2023/12/03 12:00:15;;;;;;;11.50;9.30;;;;;3.30;94254.00;;;;7387050;19;20129;-72
2023/12/03 12:02:42;;;;;;;12.23;9.10;;;;;2.50;94246.00;;;;7388090;19;20608;-72
2023/12/03 12:05:15;;;;;;;11.07;8.40;;;;;2.10;94243.00;;;;7382610;19;20137;-72
2023/12/03 12:08:04;;;;;;;11.75;9.30;;;;;3.50;94243.00;;;;7388097;19;20149;-74
2023/12/03 12:10:34;;;;;;;11.23;8.57;;;;;3.50;94235.00;;;;7389409;19;20192;-73
2023/12/03 12:13:10;;;;;;;14.00;8.82;;;;;3.00;94232.00;;;;7387567;19;20154;-72
2023/12/03 12:15:53;;;;;;;13.67;9.27;;;;;3.00;94237.00;;;;7389374;19;20219;-72
2023/12/03 12:18:30;;;;;;;14.10;9.60;;;;;2.10;94235.00;;;;7387846;19;20191;-72
2023/12/03 12:21:10;;;;;;;11.63;8.83;;;;;1.60;94238.00;;;;7388015;19;20149;-71
2023/12/03 12:23:44;;;;;;;12.63;8.80;;;;;1.20;94237.00;;;;7387046;19;20148;-72
2023/12/03 12:26:14;;;;;;;12.40;8.43;;;;;1.30;94235.00;;;;7387495;19;20164;-72
2023/12/03 12:28:50;;;;;;;10.93;7.87;;;;;1.60;94237.00;;;;7389329;19;20613;-72
2023/12/03 12:31:26;;;;;;;12.17;8.17;;;;;1.30;94230.00;;;;7387968;19;20168;-72
2023/12/03 12:33:55;;;;;;;10.65;8.32;;;;;2.00;94240.00;;;;7388383;19;20224;-72
2023/12/03 12:36:30;;;;;;;11.65;8.82;;;;;3.00;94233.00;;;;7387863;19;20168;-72
2023/12/03 12:38:58;;;;;;;10.65;8.43;;;;;3.70;94238.00;;;;7387537;19;20249;-71
2023/12/03 12:41:41;;;;;;;10.43;8.15;;;;;3.70;94241.00;;;;7383567;19;20152;-72